This is the latest recevied weather packets stored in our database for station/object F4IDZ-11. If no packets are shown the sender has not sent any weather packets the latest 10 day(s).
| Time | Temp. | Humidity | Pressure | Rain* | Wind** | Luminosity | Snow |
|---|---|---|---|---|---|---|---|
| 1778272292 | 19.44° C | 51% | 995 hPa | - | - | - | - |
| 1778271392 | 20° C | 51% | 994.9 hPa | - | - | - | - |
| 1778270491 | 20.56° C | 51% | 994.6 hPa | - | - | - | - |
| 1778263134 | 25.56° C | 47% | 993.7 hPa | - | - | - | - |
| 1778262234 | 25.56° C | 47% | 993.6 hPa | - | - | - | - |
| 1778261333 | 26.11° C | 47% | 993.5 hPa | - | - | - | - |
| 1778260433 | 26.67° C | 47% | 993.5 hPa | - | - | - | - |
| 1778259533 | 26.67° C | 47% | 993.5 hPa | - | - | - | - |
| 1778258633 | 27.22° C | 47% | 993.3 hPa | - | - | - | - |
| 1778257733 | 27.22° C | 47% | 993.4 hPa | - | - | - | - |
| 1778256833 | 27.22° C | 47% | 993.5 hPa | - | - | - | - |
| 1778255932 | 27.22° C | 47% | 993.5 hPa | - | - | - | - |
| 1778255032 | 27.22° C | 47% | 993.6 hPa | - | - | - | - |
| 1778254132 | 27.22° C | 47% | 993.7 hPa | - | - | - | - |
| 1778253231 | 27.78° C | 46% | 993.7 hPa | - | - | - | - |
| 1778252331 | 27.78° C | 47% | 993.7 hPa | - | - | - | - |
| 1778251431 | 27.78° C | 46% | 993.7 hPa | - | - | - | - |
| 1778250750 | 27.22° C | 46% | 993.7 hPa | - | - | - | - |
| 1778249850 | 27.22° C | 47% | 993.8 hPa | - | - | - | - |
| 1778248950 | 26.67° C | 47% | 993.8 hPa | - | - | - | - |
| 1778248049 | 26.11° C | 48% | 993.9 hPa | - | - | - | - |
| 1778247149 | 25.56° C | 48% | 993.9 hPa | - | - | - | - |
| 1778246249 | 25° C | 49% | 994 hPa | - | - | - | - |
| 1778245349 | 24.44° C | 49% | 994 hPa | - | - | - | - |
| 1778244449 | 24.44° C | 49% | 994 hPa | - | - | - | - |
* Rain since midnight (hover to see other rain measurements)
** Current wind speed in m/s (hover to see current wind gust speed)